createdAt,value
2023-09-05T00:00:53.320Z,17.40
2023-09-05T00:03:38.557Z,17.40
2023-09-05T00:06:25.770Z,17.53
2023-09-05T00:09:12.250Z,17.37
2023-09-05T00:11:57.356Z,17.43
2023-09-05T00:14:42.518Z,17.40
2023-09-05T00:17:27.802Z,17.47
2023-09-05T00:20:16.509Z,17.68
2023-09-05T00:23:01.756Z,17.77
2023-09-05T00:25:46.584Z,17.96
2023-09-05T00:28:31.833Z,17.97
2023-09-05T00:31:16.721Z,17.77
2023-09-05T00:34:01.895Z,17.80
2023-09-05T00:36:50.223Z,17.88
2023-09-05T00:39:36.438Z,17.74
2023-09-05T00:42:21.704Z,17.73
2023-09-05T00:45:07.106Z,17.80
2023-09-05T00:47:52.337Z,17.71
2023-09-05T00:50:41.375Z,17.80
2023-09-05T00:53:28.505Z,18.36
2023-09-05T00:56:14.101Z,18.56
2023-09-05T00:59:00.376Z,18.77
2023-09-05T01:01:45.503Z,18.30
2023-09-05T01:04:35.138Z,18.16
2023-09-05T01:07:33.709Z,17.86
2023-09-05T01:10:25.437Z,17.58
2023-09-05T01:13:10.866Z,17.45
2023-09-05T01:15:56.107Z,17.49
2023-09-05T01:18:42.940Z,17.33
2023-09-05T01:21:37.107Z,17.24
2023-09-05T01:24:23.275Z,17.38
2023-09-05T01:27:09.417Z,17.56
2023-09-05T01:29:55.908Z,17.59
2023-09-05T01:32:40.902Z,17.61
2023-09-05T01:35:25.990Z,17.43
2023-09-05T01:38:11.809Z,18.20
2023-09-05T01:40:57.390Z,18.37
2023-09-05T01:43:42.645Z,17.94
2023-09-05T01:46:27.884Z,18.23
2023-09-05T01:49:12.817Z,18.26
2023-09-05T01:51:57.914Z,18.11
2023-09-05T01:54:43.241Z,18.06
2023-09-05T01:57:28.182Z,17.71
2023-09-05T02:00:13.752Z,18.05
2023-09-05T02:02:58.675Z,17.94
2023-09-05T02:05:44.207Z,17.88
2023-09-05T02:08:29.234Z,17.82
2023-09-05T02:11:16.435Z,18.24
2023-09-05T02:14:01.376Z,17.98
2023-09-05T02:16:46.617Z,17.61
2023-09-05T02:19:31.678Z,17.73
2023-09-05T02:22:17.031Z,17.71
2023-09-05T02:25:02.158Z,17.97
2023-09-05T02:27:47.646Z,17.73
2023-09-05T02:30:33.592Z,18.33
2023-09-05T02:37:19.020Z,18.32
2023-09-05T02:40:04.680Z,17.82
2023-09-05T02:42:50.040Z,18.23
2023-09-05T02:45:35.320Z,18.02
2023-09-05T02:48:20.299Z,17.86
2023-09-05T02:51:06.952Z,18.39
2023-09-05T02:53:51.846Z,18.18
2023-09-05T02:56:37.126Z,18.11
2023-09-05T02:59:23.209Z,17.71
2023-09-05T03:02:08.103Z,17.42
2023-09-05T03:04:56.461Z,17.60
2023-09-05T03:07:41.790Z,17.56
2023-09-05T03:10:26.750Z,17.84
2023-09-05T03:13:11.675Z,18.07
2023-09-05T03:15:57.286Z,18.56
2023-09-05T03:18:43.442Z,18.55
2023-09-05T03:21:29.500Z,18.37
2023-09-05T03:24:19.116Z,18.30
2023-09-05T03:27:04.886Z,18.66
2023-09-05T03:29:49.917Z,18.08
2023-09-05T03:32:34.981Z,18.16
2023-09-05T03:35:20.049Z,18.01
2023-09-05T03:38:08.347Z,18.07
2023-09-05T03:40:55.518Z,17.35
2023-09-05T03:43:41.063Z,17.91
2023-09-05T03:46:26.021Z,17.43
2023-09-05T03:49:11.478Z,16.78
2023-09-05T03:51:58.769Z,16.70
2023-09-05T03:54:43.969Z,17.58
2023-09-05T03:57:29.044Z,17.80
2023-09-05T04:00:14.329Z,18.28
2023-09-05T04:02:59.802Z,18.31
2023-09-05T04:05:44.771Z,18.05
2023-09-05T04:08:29.588Z,18.28
2023-09-05T04:11:14.580Z,17.70
2023-09-05T04:13:59.994Z,17.04
2023-09-05T04:16:45.037Z,16.59
2023-09-05T04:19:30.242Z,16.32
2023-09-05T04:22:15.223Z,16.12
2023-09-05T04:25:00.658Z,16.43
2023-09-05T04:27:47.406Z,16.61
2023-09-05T04:30:33.887Z,17.73
2023-09-05T04:33:19.275Z,17.73
2023-09-05T04:36:08.054Z,17.82
2023-09-05T04:38:53.689Z,17.47
2023-09-05T04:41:38.845Z,17.32
2023-09-05T04:44:24.212Z,17.07
2023-09-05T04:47:20.765Z,17.01
2023-09-05T04:50:06.713Z,17.33
2023-09-05T04:52:51.956Z,17.05
2023-09-05T04:55:37.463Z,16.94
2023-09-05T04:58:22.761Z,16.28
2023-09-05T05:01:07.739Z,16.40
2023-09-05T05:03:53.458Z,16.87
2023-09-05T05:06:38.899Z,17.67
2023-09-05T05:09:24.309Z,17.41
2023-09-05T05:12:10.166Z,18.24
2023-09-05T05:14:55.824Z,18.47
2023-09-05T05:17:41.203Z,18.46
2023-09-05T05:20:26.314Z,18.54
2023-09-05T05:23:11.642Z,18.49
2023-09-05T05:26:00.637Z,17.36
2023-09-05T05:28:45.964Z,17.22
2023-09-05T05:31:30.746Z,17.97
2023-09-05T05:34:16.869Z,18.30
2023-09-05T05:37:02.176Z,18.42
2023-09-05T05:39:47.442Z,18.63
2023-09-05T05:42:32.375Z,18.74
2023-09-05T05:45:17.599Z,18.79
2023-09-05T05:48:02.933Z,18.52
2023-09-05T05:50:48.112Z,18.34
2023-09-05T05:53:33.626Z,18.17
2023-09-05T05:56:19.376Z,18.27
2023-09-05T05:59:04.395Z,18.09
2023-09-05T06:01:52.109Z,17.97
2023-09-05T06:04:37.717Z,17.95
2023-09-05T06:07:22.766Z,17.44
2023-09-05T06:10:08.567Z,18.06
2023-09-05T06:12:53.715Z,17.67
2023-09-05T06:15:39.981Z,17.88
2023-09-05T06:18:25.080Z,17.62
2023-09-05T06:21:10.390Z,17.59
2023-09-05T06:23:55.172Z,17.74
2023-09-05T06:26:42.273Z,17.67
2023-09-05T06:29:27.200Z,17.77
2023-09-05T06:32:12.965Z,17.69
2023-09-05T06:34:58.079Z,17.70
2023-09-05T06:37:43.823Z,17.75
2023-09-05T06:40:29.230Z,17.74
2023-09-05T06:43:14.134Z,17.77
2023-09-05T06:46:07.432Z,17.92
2023-09-05T06:48:52.543Z,18.04
2023-09-05T06:51:37.683Z,18.11
2023-09-05T06:54:22.615Z,18.19
2023-09-05T06:57:09.806Z,18.35
2023-09-05T06:59:54.871Z,18.31
2023-09-05T07:02:40.423Z,18.34
2023-09-05T07:05:25.800Z,18.44
2023-09-05T07:08:11.206Z,18.47
2023-09-05T07:10:56.540Z,18.64
2023-09-05T07:13:41.803Z,18.93
2023-09-05T07:16:26.938Z,18.99
2023-09-05T07:19:12.168Z,19.14
2023-09-05T07:21:58.863Z,19.44
2023-09-05T07:24:43.926Z,19.66
2023-09-05T07:27:30.044Z,19.73
2023-09-05T07:30:17.387Z,19.90
2023-09-05T07:33:03.884Z,20.18
2023-09-05T07:35:48.788Z,20.33
2023-09-05T07:38:34.163Z,20.22
2023-09-05T07:41:19.511Z,20.34
2023-09-05T07:44:04.520Z,20.71
2023-09-05T07:46:49.665Z,20.93
2023-09-05T07:49:40.338Z,21.09
2023-09-05T07:52:25.962Z,21.10
2023-09-05T07:55:10.933Z,21.29
2023-09-05T07:57:56.758Z,21.52
2023-09-05T08:00:44.095Z,21.68
2023-09-05T08:03:29.911Z,21.94
2023-09-05T08:06:15.479Z,21.94
2023-09-05T08:09:01.227Z,22.12
2023-09-05T08:11:46.102Z,22.14
2023-09-05T08:14:31.206Z,22.18
2023-09-05T08:17:16.499Z,22.17
2023-09-05T08:20:01.780Z,22.45
2023-09-05T08:22:48.204Z,22.59
2023-09-05T08:25:33.198Z,22.85
2023-09-05T08:28:20.330Z,22.93
2023-09-05T08:31:17.649Z,22.95
2023-09-05T08:34:03.847Z,23.36
2023-09-05T08:36:49.906Z,23.50
2023-09-05T08:39:35.598Z,23.57
2023-09-05T08:42:22.917Z,23.77
2023-09-05T08:45:12.780Z,23.93
2023-09-05T08:48:00.284Z,23.95
2023-09-05T08:50:46.137Z,23.97
2023-09-05T08:53:35.200Z,24.30
2023-09-05T08:56:21.597Z,24.47
2023-09-05T08:59:06.983Z,24.61
2023-09-05T09:01:54.191Z,24.83
2023-09-05T09:04:52.322Z,24.90
2023-09-05T09:07:37.615Z,24.86
2023-09-05T09:10:23.067Z,25.04
2023-09-05T09:13:21.476Z,25.08
2023-09-05T09:16:07.064Z,24.96
2023-09-05T09:19:04.368Z,25.04
2023-09-05T09:21:49.595Z,25.15
2023-09-05T09:24:35.958Z,25.40
2023-09-05T09:27:24.468Z,25.45
2023-09-05T09:30:11.855Z,25.40
2023-09-05T09:32:57.265Z,25.84
2023-09-05T09:35:42.445Z,26.17
2023-09-05T09:38:28.450Z,26.03
2023-09-05T09:41:15.769Z,26.47
2023-09-05T09:44:00.996Z,26.67
2023-09-05T09:46:46.542Z,26.57
2023-09-05T09:49:32.443Z,26.79
2023-09-05T09:52:21.209Z,26.50
2023-09-05T09:55:12.173Z,26.61
2023-09-05T09:58:03.861Z,26.69
2023-09-05T10:00:50.954Z,26.85
2023-09-05T10:03:38.324Z,26.80
2023-09-05T10:06:27.250Z,26.69
2023-09-05T10:09:13.062Z,27.03
2023-09-05T10:12:02.769Z,27.19
2023-09-05T10:14:49.886Z,27.27
2023-09-05T10:17:36.792Z,27.70
2023-09-05T10:20:25.336Z,27.92
2023-09-05T10:23:12.577Z,27.99
2023-09-05T10:26:00.535Z,28.05
2023-09-05T10:28:45.481Z,27.93
2023-09-05T10:31:31.248Z,28.14
2023-09-05T10:34:16.202Z,28.13
2023-09-05T10:37:01.692Z,28.44
2023-09-05T10:39:48.528Z,28.52
2023-09-05T10:42:34.437Z,28.70
2023-09-05T10:45:22.416Z,29.13
2023-09-05T10:48:18.974Z,28.71
2023-09-05T10:51:09.181Z,28.78
2023-09-05T10:54:26.979Z,28.87
2023-09-05T10:57:35.719Z,29.17
2023-09-05T11:00:22.024Z,29.14
2023-09-05T11:03:15.738Z,29.23
2023-09-05T11:06:01.434Z,29.60
2023-09-05T11:09:06.548Z,29.66
2023-09-05T11:11:53.826Z,29.85
2023-09-05T11:14:40.346Z,29.85
2023-09-05T11:17:25.635Z,29.86
2023-09-05T11:20:11.349Z,29.74
2023-09-05T11:22:56.240Z,29.93
2023-09-05T11:25:47.549Z,30.38
2023-09-05T11:28:33.491Z,30.41
2023-09-05T11:31:19.514Z,30.50
2023-09-05T11:34:04.791Z,30.38
2023-09-05T11:36:49.912Z,30.60
2023-09-05T11:39:35.743Z,30.59
2023-09-05T11:42:31.838Z,31.02
2023-09-05T11:45:21.062Z,30.99
2023-09-05T11:48:11.640Z,30.95
2023-09-05T11:50:56.808Z,31.10
2023-09-05T11:53:47.059Z,31.03
2023-09-05T11:56:32.177Z,31.28
2023-09-05T11:59:17.897Z,31.34
2023-09-05T12:02:10.326Z,31.32
2023-09-05T12:04:56.948Z,31.40
2023-09-05T12:07:41.834Z,31.47
2023-09-05T12:10:27.466Z,31.14
2023-09-05T12:13:12.727Z,31.22
2023-09-05T12:15:59.334Z,31.52
2023-09-05T12:18:46.773Z,31.53
2023-09-05T12:21:43.608Z,31.78
2023-09-05T12:24:30.573Z,31.70
2023-09-05T12:27:25.700Z,31.48
2023-09-05T12:30:29.558Z,31.63
2023-09-05T12:33:15.067Z,31.90
2023-09-05T12:36:00.232Z,32.26
2023-09-05T12:38:45.199Z,31.85
2023-09-05T12:41:30.645Z,31.88
2023-09-05T12:44:17.276Z,31.91
2023-09-05T12:47:02.635Z,32.09
2023-09-05T12:50:00.130Z,32.36
2023-09-05T12:52:53.220Z,32.36
2023-09-05T12:55:39.162Z,32.34
2023-09-05T12:58:24.302Z,32.38
2023-09-05T13:01:09.642Z,32.22
2023-09-05T13:03:54.836Z,32.42
2023-09-05T13:06:43.606Z,32.64
2023-09-05T13:09:28.833Z,32.95
2023-09-05T13:12:13.867Z,33.02
2023-09-05T13:14:58.792Z,33.04
2023-09-05T13:17:47.267Z,32.54
2023-09-05T13:20:33.544Z,32.68
2023-09-05T13:23:19.409Z,33.29
2023-09-05T13:26:07.820Z,33.28
2023-09-05T13:28:54.077Z,33.52
2023-09-05T13:31:39.240Z,33.23
2023-09-05T13:34:24.929Z,32.96
2023-09-05T13:37:10.322Z,33.50
2023-09-05T13:39:55.246Z,33.87
2023-09-05T13:42:40.212Z,33.94
2023-09-05T13:45:25.381Z,34.01
2023-09-05T13:48:10.485Z,34.13
2023-09-05T13:50:55.473Z,33.65
2023-09-05T13:53:40.482Z,33.85
2023-09-05T13:56:26.293Z,34.00
2023-09-05T13:59:12.443Z,34.33
2023-09-05T14:01:58.655Z,34.90
2023-09-05T14:04:43.770Z,34.55
2023-09-05T14:07:28.978Z,34.34
2023-09-05T14:10:14.880Z,34.16
2023-09-05T14:12:59.869Z,33.85
2023-09-05T14:15:45.208Z,33.75
2023-09-05T14:18:31.303Z,33.78
2023-09-05T14:21:16.553Z,34.02
2023-09-05T14:24:02.055Z,33.99
2023-09-05T14:26:47.622Z,34.03
2023-09-05T14:29:32.974Z,34.29
2023-09-05T14:32:18.680Z,34.23
2023-09-05T14:35:03.771Z,34.40
2023-09-05T14:37:50.285Z,34.86
2023-09-05T14:40:35.395Z,35.19
2023-09-05T14:43:22.201Z,34.96
2023-09-05T14:46:07.327Z,34.73
2023-09-05T14:48:52.285Z,34.91
2023-09-05T14:51:38.038Z,35.34
2023-09-05T14:54:23.317Z,35.84
2023-09-05T14:57:08.483Z,35.13
2023-09-05T14:59:53.605Z,35.34
2023-09-05T15:02:39.332Z,35.44
2023-09-05T15:05:24.710Z,35.54
2023-09-05T15:08:09.701Z,35.56
2023-09-05T15:10:54.669Z,35.37
2023-09-05T15:13:39.957Z,35.91
2023-09-05T15:16:26.297Z,35.69
2023-09-05T15:19:11.979Z,36.07
2023-09-05T15:21:57.279Z,36.00
2023-09-05T15:24:43.941Z,37.00
2023-09-05T15:27:29.266Z,36.39
2023-09-05T15:30:17.823Z,36.31
2023-09-05T15:33:03.608Z,36.31
2023-09-05T15:35:48.822Z,36.07
2023-09-05T15:38:34.020Z,35.09
2023-09-05T15:41:19.755Z,35.04
2023-09-05T15:44:05.169Z,34.45
2023-09-05T15:46:50.294Z,33.40
2023-09-05T15:49:35.547Z,32.36
2023-09-05T15:52:20.731Z,31.86
2023-09-05T15:55:06.221Z,31.52
2023-09-05T15:57:51.246Z,31.13
2023-09-05T16:00:36.739Z,30.92
2023-09-05T16:03:26.979Z,30.82
2023-09-05T16:06:12.301Z,30.67
2023-09-05T16:08:57.338Z,30.49
2023-09-05T16:11:43.851Z,30.46
2023-09-05T16:14:30.803Z,30.26
2023-09-05T16:17:21.965Z,30.17
2023-09-05T16:20:08.503Z,30.06
2023-09-05T16:22:53.649Z,30.00
2023-09-05T16:25:38.739Z,29.92
2023-09-05T16:28:28.049Z,29.84
2023-09-05T16:31:13.443Z,29.88
2023-09-05T16:34:00.224Z,29.83
2023-09-05T16:36:45.312Z,29.77
2023-09-05T16:39:32.039Z,29.68
2023-09-05T16:42:17.401Z,29.66
2023-09-05T16:45:03.006Z,29.55
2023-09-05T16:47:48.059Z,29.46
2023-09-05T16:50:33.498Z,29.31
2023-09-05T16:53:18.787Z,29.25
2023-09-05T16:56:04.116Z,29.13
2023-09-05T16:58:49.259Z,29.15
2023-09-05T17:01:35.220Z,29.03
2023-09-05T17:04:20.488Z,29.04
2023-09-05T17:07:06.488Z,29.07
2023-09-05T17:09:51.668Z,28.98
2023-09-05T17:12:36.745Z,28.97
2023-09-05T17:15:21.712Z,29.06
2023-09-05T17:18:07.016Z,29.13
2023-09-05T17:20:53.762Z,28.99
2023-09-05T17:23:39.838Z,28.72
2023-09-05T17:26:25.378Z,28.57
2023-09-05T17:29:10.326Z,28.27
2023-09-05T17:31:55.918Z,28.06
2023-09-05T17:34:40.799Z,27.86
2023-09-05T17:37:26.453Z,27.78
2023-09-05T17:40:12.999Z,27.59
2023-09-05T17:42:58.083Z,27.48
2023-09-05T17:45:43.878Z,27.38
2023-09-05T17:48:30.880Z,27.29
2023-09-05T17:51:17.013Z,27.18
2023-09-05T17:54:02.559Z,26.96
2023-09-05T17:56:47.537Z,26.92
2023-09-05T17:59:32.985Z,26.71
2023-09-05T18:02:18.632Z,26.67
2023-09-05T18:05:04.128Z,26.51
2023-09-05T18:07:49.557Z,26.38
2023-09-05T18:10:34.596Z,26.30
2023-09-05T18:13:20.999Z,26.24
2023-09-05T18:16:07.445Z,25.96
2023-09-05T18:18:53.203Z,26.03
2023-09-05T18:21:38.900Z,25.88
2023-09-05T18:24:25.724Z,25.74
2023-09-05T18:27:11.287Z,25.80
2023-09-05T18:29:56.188Z,25.59
2023-09-05T18:32:41.240Z,25.51
2023-09-05T18:35:26.645Z,25.58
2023-09-05T18:38:11.703Z,25.48
2023-09-05T18:40:57.719Z,25.57
2023-09-05T18:43:43.682Z,25.35
2023-09-05T18:46:29.319Z,25.21
2023-09-05T18:49:14.314Z,25.20
2023-09-05T18:52:00.204Z,25.00
2023-09-05T18:54:46.091Z,24.88
2023-09-05T18:57:31.409Z,24.88
2023-09-05T19:00:16.829Z,24.90
2023-09-05T19:03:03.142Z,24.80
2023-09-05T19:05:48.634Z,24.70
2023-09-05T19:08:34.373Z,24.72
2023-09-05T19:11:19.553Z,24.65
2023-09-05T19:14:04.931Z,24.41
2023-09-05T19:16:56.078Z,24.42
2023-09-05T19:19:41.454Z,24.36
2023-09-05T19:22:26.480Z,24.26
2023-09-05T19:25:11.640Z,24.26
2023-09-05T19:27:57.175Z,24.25
2023-09-05T19:30:42.370Z,24.17
2023-09-05T19:33:27.462Z,24.14
2023-09-05T19:36:12.776Z,23.97
2023-09-05T19:38:58.136Z,23.82
2023-09-05T19:41:44.086Z,23.91
2023-09-05T19:44:29.412Z,23.90
2023-09-05T19:47:14.804Z,23.79
2023-09-05T19:49:59.986Z,23.69
2023-09-05T19:52:45.114Z,23.63
2023-09-05T19:55:30.728Z,23.64
2023-09-05T19:58:18.941Z,23.55
2023-09-05T20:01:04.238Z,23.53
2023-09-05T20:03:49.730Z,23.42
2023-09-05T20:06:37.735Z,23.38
2023-09-05T20:09:23.769Z,23.26
2023-09-05T20:12:09.305Z,23.21
2023-09-05T20:14:54.587Z,23.37
2023-09-05T20:17:39.777Z,23.17
2023-09-05T20:20:27.656Z,23.16
2023-09-05T20:23:12.642Z,23.13
2023-09-05T20:25:57.621Z,22.87
2023-09-05T20:28:42.720Z,22.94
2023-09-05T20:31:28.272Z,22.85
2023-09-05T20:34:13.771Z,22.75
2023-09-05T20:36:59.073Z,22.88
2023-09-05T20:39:44.178Z,22.91
2023-09-05T20:42:29.111Z,22.73
2023-09-05T20:45:16.461Z,22.80
2023-09-05T20:48:01.259Z,22.88
2023-09-05T20:50:46.124Z,22.70
2023-09-05T20:53:31.444Z,22.59
2023-09-05T20:56:20.587Z,22.57
2023-09-05T20:59:06.035Z,22.64
2023-09-05T21:01:52.055Z,22.52
2023-09-05T21:04:37.169Z,22.30
2023-09-05T21:07:23.746Z,22.33
2023-09-05T21:10:10.458Z,22.30
2023-09-05T21:12:56.257Z,22.32
2023-09-05T21:15:41.291Z,22.19
2023-09-05T21:18:26.536Z,22.10
2023-09-05T21:21:12.471Z,21.96
2023-09-05T21:23:57.588Z,22.02
2023-09-05T21:26:42.578Z,21.97
2023-09-05T21:29:27.430Z,22.03
2023-09-05T21:32:12.938Z,22.13
2023-09-05T21:34:57.909Z,22.19
2023-09-05T21:37:44.449Z,22.20
2023-09-05T21:40:29.550Z,22.21
2023-09-05T21:43:15.087Z,22.33
2023-09-05T21:46:00.236Z,22.03
2023-09-05T21:48:46.290Z,22.05
2023-09-05T21:51:31.145Z,21.96
2023-09-05T21:54:17.648Z,21.91
2023-09-05T21:57:02.878Z,21.70
2023-09-05T21:59:48.646Z,21.53
2023-09-05T22:02:33.895Z,21.61
2023-09-05T22:05:21.999Z,21.73
2023-09-05T22:08:08.008Z,21.64
2023-09-05T22:10:55.724Z,21.45
2023-09-05T22:13:40.933Z,21.60
2023-09-05T22:16:26.458Z,21.49
2023-09-05T22:19:19.965Z,21.57
2023-09-05T22:22:09.488Z,21.72
2023-09-05T22:24:54.757Z,21.50
2023-09-05T22:27:40.070Z,21.61
2023-09-05T22:30:25.218Z,21.76
2023-09-05T22:33:10.536Z,21.64
2023-09-05T22:35:56.547Z,21.54
2023-09-05T22:38:41.617Z,21.48
2023-09-05T22:41:26.766Z,21.77
2023-09-05T22:44:12.111Z,21.43
2023-09-05T22:46:57.152Z,21.45
2023-09-05T22:49:42.455Z,21.53
2023-09-05T22:52:27.423Z,21.85
2023-09-05T22:55:13.427Z,21.75
2023-09-05T22:57:58.679Z,21.83
2023-09-05T23:00:43.671Z,21.64
2023-09-05T23:03:29.157Z,21.39
2023-09-05T23:06:15.066Z,21.52
2023-09-05T23:09:00.377Z,21.52
2023-09-05T23:11:45.685Z,21.33
2023-09-05T23:14:30.910Z,21.44
2023-09-05T23:17:16.064Z,21.35
2023-09-05T23:20:01.615Z,21.33
2023-09-05T23:22:47.678Z,21.13
2023-09-05T23:25:36.649Z,21.27
2023-09-05T23:28:21.578Z,21.31
2023-09-05T23:31:07.530Z,21.44
2023-09-05T23:33:54.597Z,21.06
2023-09-05T23:36:40.112Z,21.11
2023-09-05T23:39:25.344Z,21.22
2023-09-05T23:42:10.518Z,21.05
2023-09-05T23:44:56.498Z,21.23
2023-09-05T23:47:44.374Z,21.06
2023-09-05T23:50:30.028Z,21.14
2023-09-05T23:53:15.072Z,21.16
2023-09-05T23:56:00.408Z,21.31
2023-09-05T23:58:45.449Z,21.17
